createdAt,value
2018-02-23T00:00:37.781Z,78.38
2018-02-23T00:03:06.945Z,78.53
2018-02-23T00:05:35.296Z,78.59
2018-02-23T00:08:03.635Z,78.57
2018-02-23T00:10:32.766Z,78.83
2018-02-23T00:13:01.086Z,78.90
2018-02-23T00:15:29.432Z,79.01
2018-02-23T00:17:58.376Z,78.97
2018-02-23T00:20:26.706Z,79.15
2018-02-23T00:22:55.041Z,79.06
2018-02-23T00:25:23.394Z,79.24
2018-02-23T00:27:51.712Z,79.35
2018-02-23T00:30:20.144Z,79.61
2018-02-23T00:32:48.474Z,79.60
2018-02-23T00:35:17.612Z,79.80
2018-02-23T00:37:46.034Z,79.52
2018-02-23T00:40:14.424Z,79.75
2018-02-23T00:42:43.122Z,79.91
2018-02-23T00:45:11.522Z,80.25
2018-02-23T00:47:39.859Z,80.26
2018-02-23T00:50:08.178Z,80.23
2018-02-23T00:52:37.300Z,80.15
2018-02-23T00:55:05.698Z,80.26
2018-02-23T00:57:34.042Z,80.20
2018-02-23T01:00:03.154Z,80.38
2018-02-23T01:02:32.266Z,80.36
2018-02-23T01:05:01.368Z,80.11
2018-02-23T01:07:29.768Z,80.23
2018-02-23T01:09:58.138Z,80.26
2018-02-23T01:12:26.476Z,80.14
2018-02-23T01:14:54.862Z,80.02
2018-02-23T01:17:24.023Z,79.92
2018-02-23T01:19:52.403Z,79.61
2018-02-23T01:22:20.817Z,79.78
2018-02-23T01:24:49.145Z,79.85
2018-02-23T01:27:17.484Z,79.95
2018-02-23T01:29:45.825Z,80.04
2018-02-23T01:32:14.183Z,80.54
2018-02-23T01:34:42.528Z,80.60
2018-02-23T01:37:11.651Z,80.35
2018-02-23T01:39:40.012Z,80.21
2018-02-23T01:42:08.380Z,80.09
2018-02-23T01:44:36.714Z,80.21
2018-02-23T01:47:05.089Z,80.02
2018-02-23T01:49:33.483Z,80.55
2018-02-23T01:52:01.844Z,80.58
2018-02-23T01:54:30.266Z,80.84
2018-02-23T01:56:58.655Z,80.90
2018-02-23T01:59:27.054Z,80.99
2018-02-23T02:01:55.408Z,80.80
2018-02-23T02:04:23.737Z,81.02
2018-02-23T02:06:52.878Z,80.50
2018-02-23T02:09:21.272Z,81.10
2018-02-23T02:11:49.610Z,80.88
2018-02-23T02:14:17.960Z,80.96
2018-02-23T02:16:46.320Z,80.74
2018-02-23T02:19:14.679Z,80.72
2018-02-23T02:21:43.022Z,80.69
2018-02-23T02:24:12.156Z,80.69
2018-02-23T02:26:40.462Z,80.57
2018-02-23T02:29:08.807Z,80.59
2018-02-23T02:31:37.115Z,80.50
2018-02-23T02:34:05.604Z,81.00
2018-02-23T02:36:34.718Z,81.33
2018-02-23T02:39:03.068Z,81.22
2018-02-23T02:41:31.433Z,81.37
2018-02-23T02:43:59.790Z,80.94
2018-02-23T02:46:28.940Z,81.16
2018-02-23T02:48:57.328Z,81.08
2018-02-23T02:51:25.647Z,81.25
2018-02-23T02:53:54.762Z,81.07
2018-02-23T02:56:23.135Z,80.97
2018-02-23T02:58:52.260Z,81.14
2018-02-23T03:01:20.627Z,81.20
2018-02-23T03:03:49.030Z,80.61
2018-02-23T03:06:17.454Z,80.69
2018-02-23T03:08:45.849Z,81.25
2018-02-23T03:11:15.056Z,81.15
2018-02-23T03:13:43.576Z,81.06
2018-02-23T03:16:11.959Z,81.25
2018-02-23T03:18:40.286Z,81.02
2018-02-23T03:21:08.653Z,81.30
2018-02-23T03:23:37.791Z,81.23
2018-02-23T03:26:06.187Z,81.20
2018-02-23T03:28:34.536Z,81.32
2018-02-23T03:31:02.875Z,81.22
2018-02-23T03:33:31.230Z,81.34
2018-02-23T03:35:59.649Z,81.13
2018-02-23T03:38:27.996Z,81.15
2018-02-23T03:40:56.340Z,81.40
2018-02-23T03:43:24.979Z,81.47
2018-02-23T03:45:53.456Z,81.18
2018-02-23T03:48:21.830Z,81.05
2018-02-23T03:50:50.270Z,81.16
2018-02-23T03:53:18.663Z,81.39
2018-02-23T03:55:47.044Z,81.23
2018-02-23T03:58:15.389Z,81.02
2018-02-23T04:00:43.992Z,80.99
2018-02-23T04:03:12.428Z,81.34
2018-02-23T04:05:40.808Z,81.68
2018-02-23T04:08:09.228Z,81.34
2018-02-23T04:10:37.588Z,81.59
2018-02-23T04:13:06.030Z,81.11
2018-02-23T04:15:34.400Z,80.96
2018-02-23T04:18:02.748Z,80.94
2018-02-23T04:20:31.076Z,80.92
2018-02-23T04:23:00.248Z,81.64
2018-02-23T04:25:28.622Z,81.63
2018-02-23T04:27:57.014Z,81.55
2018-02-23T04:30:25.464Z,81.51
2018-02-23T04:32:54.623Z,81.11
2018-02-23T04:35:23.738Z,81.48
2018-02-23T04:37:52.060Z,81.57
2018-02-23T04:40:20.384Z,81.55
2018-02-23T04:42:49.464Z,81.33
2018-02-23T04:45:17.794Z,81.07
2018-02-23T04:47:46.102Z,80.78
2018-02-23T04:50:14.417Z,82.66
2018-02-23T04:52:43.496Z,82.30
2018-02-23T04:55:11.810Z,82.73
2018-02-23T04:57:40.889Z,82.74
2018-02-23T05:00:09.216Z,82.85
2018-02-23T05:02:37.537Z,82.56
2018-02-23T05:05:05.858Z,81.53
2018-02-23T05:07:34.176Z,81.61
2018-02-23T05:10:02.497Z,82.06
2018-02-23T05:12:31.592Z,81.97
2018-02-23T05:14:59.923Z,82.41
2018-02-23T05:17:28.247Z,82.30
2018-02-23T05:19:56.560Z,81.30
2018-02-23T05:22:24.882Z,81.26
2018-02-23T05:24:53.190Z,81.61
2018-02-23T05:27:21.544Z,81.81
2018-02-23T05:29:49.904Z,81.49
2018-02-23T05:32:18.228Z,82.20
2018-02-23T05:34:46.619Z,82.12
2018-02-23T05:37:14.980Z,82.20
2018-02-23T05:39:43.303Z,82.30
2018-02-23T05:42:11.733Z,82.65
2018-02-23T05:44:40.060Z,82.42
2018-02-23T05:47:09.141Z,82.52
2018-02-23T05:49:37.468Z,82.43
2018-02-23T05:52:05.778Z,82.57
2018-02-23T05:54:34.134Z,82.44
2018-02-23T05:57:02.454Z,82.62
2018-02-23T05:59:30.784Z,82.49
2018-02-23T06:01:59.100Z,82.35
2018-02-23T06:04:27.448Z,82.31
2018-02-23T06:06:55.775Z,81.86
2018-02-23T06:09:24.114Z,81.55
2018-02-23T06:11:52.430Z,81.75
2018-02-23T06:14:20.774Z,81.76
2018-02-23T06:16:49.111Z,81.58
2018-02-23T06:19:24.344Z,81.66
2018-02-23T06:21:52.673Z,82.08
2018-02-23T06:24:21.003Z,82.04
2018-02-23T06:26:49.319Z,82.13
2018-02-23T06:29:17.640Z,81.94
2018-02-23T06:31:46.044Z,81.46
2018-02-23T06:34:14.383Z,81.24
2018-02-23T06:36:42.698Z,81.22
2018-02-23T06:39:11.020Z,81.24
2018-02-23T06:41:39.399Z,81.20
2018-02-23T06:44:07.729Z,81.30
2018-02-23T06:46:36.044Z,81.22
2018-02-23T06:49:05.157Z,80.99
2018-02-23T06:51:34.337Z,80.93
2018-02-23T06:54:03.572Z,80.90
2018-02-23T06:56:31.903Z,80.84
2018-02-23T06:59:00.245Z,80.99
2018-02-23T07:01:28.597Z,80.86
2018-02-23T07:03:57.722Z,80.65
2018-02-23T07:06:26.056Z,81.08
2018-02-23T07:08:54.466Z,81.07
2018-02-23T07:11:23.543Z,80.50
2018-02-23T07:13:52.628Z,80.17
2018-02-23T07:16:21.662Z,80.37
2018-02-23T07:18:49.994Z,80.53
2018-02-23T07:21:18.341Z,80.51
2018-02-23T07:23:46.656Z,80.52
2018-02-23T07:26:14.987Z,80.25
2018-02-23T07:28:43.300Z,80.20
2018-02-23T07:31:11.607Z,80.41
2018-02-23T07:33:39.962Z,80.49
2018-02-23T07:36:08.287Z,81.02
2018-02-23T07:38:37.402Z,81.34
2018-02-23T07:41:06.493Z,81.30
2018-02-23T07:43:35.637Z,81.56
2018-02-23T07:46:05.739Z,81.58
2018-02-23T07:48:34.053Z,81.17
2018-02-23T07:51:02.374Z,80.44
2018-02-23T07:53:31.469Z,80.09
2018-02-23T07:56:00.617Z,79.54
2018-02-23T07:58:28.972Z,79.69
2018-02-23T08:00:57.285Z,79.58
2018-02-23T08:03:25.624Z,78.79
2018-02-23T08:05:54.074Z,78.33
2018-02-23T08:08:22.419Z,77.68
2018-02-23T08:10:50.891Z,77.24
2018-02-23T08:13:19.189Z,76.89
2018-02-23T08:15:47.499Z,76.70
2018-02-23T08:18:15.833Z,76.48
2018-02-23T08:20:44.128Z,75.70
2018-02-23T08:23:12.603Z,75.34
2018-02-23T08:25:40.999Z,75.32
2018-02-23T08:28:09.301Z,74.58
2018-02-23T08:30:37.667Z,73.77
2018-02-23T08:33:05.998Z,73.44
2018-02-23T08:35:35.125Z,72.70
2018-02-23T08:38:03.470Z,72.31
2018-02-23T08:40:32.607Z,72.41
2018-02-23T08:43:01.086Z,72.56
2018-02-23T08:45:29.486Z,72.29
2018-02-23T08:47:57.849Z,71.99
2018-02-23T08:50:26.205Z,71.80
2018-02-23T08:52:55.399Z,71.29
2018-02-23T08:55:23.731Z,71.18
2018-02-23T08:57:52.184Z,71.10
2018-02-23T09:00:21.257Z,70.34
2018-02-23T09:02:50.391Z,70.38
2018-02-23T09:05:19.077Z,69.69
2018-02-23T09:07:47.413Z,69.44
2018-02-23T09:10:16.677Z,69.13
2018-02-23T09:12:45.061Z,67.88
2018-02-23T09:15:13.390Z,67.98
2018-02-23T09:17:42.461Z,68.06
2018-02-23T09:20:10.848Z,68.07
2018-02-23T09:22:39.235Z,67.75
2018-02-23T09:25:07.561Z,67.58
2018-02-23T09:27:35.997Z,67.50
2018-02-23T09:30:04.382Z,66.96
2018-02-23T09:32:39.904Z,66.99
2018-02-23T09:35:08.250Z,66.11
2018-02-23T09:37:36.575Z,65.41
2018-02-23T09:40:04.897Z,65.27
2018-02-23T09:42:33.984Z,65.20
2018-02-23T09:45:03.053Z,64.74
2018-02-23T09:47:31.377Z,64.54
2018-02-23T09:50:00.463Z,64.17
2018-02-23T09:52:29.561Z,64.01
2018-02-23T09:54:58.689Z,63.51
2018-02-23T09:57:27.012Z,62.88
2018-02-23T09:59:55.339Z,62.05
2018-02-23T10:02:23.733Z,62.38
2018-02-23T10:04:52.112Z,62.29
2018-02-23T10:07:20.467Z,61.97
2018-02-23T10:09:49.534Z,61.16
2018-02-23T10:12:17.927Z,60.83
2018-02-23T10:14:46.235Z,60.32
2018-02-23T10:17:15.343Z,60.02
2018-02-23T10:19:43.706Z,59.11
2018-02-23T10:22:12.798Z,58.19
2018-02-23T10:24:41.143Z,58.11
2018-02-23T10:27:09.484Z,56.43
2018-02-23T10:29:37.819Z,56.42
2018-02-23T10:32:06.160Z,56.07
2018-02-23T10:34:34.549Z,55.81
2018-02-23T10:37:02.854Z,55.31
2018-02-23T10:39:31.515Z,55.69
2018-02-23T10:41:59.817Z,55.25
2018-02-23T10:44:28.196Z,54.78
2018-02-23T10:46:56.523Z,53.97
2018-02-23T10:49:25.613Z,52.89
2018-02-23T10:51:53.953Z,52.93
2018-02-23T10:54:22.271Z,52.68
2018-02-23T10:56:50.634Z,52.16
2018-02-23T10:59:18.965Z,51.77
2018-02-23T11:01:47.275Z,50.83
2018-02-23T11:04:16.477Z,50.68
2018-02-23T11:06:44.767Z,50.66
2018-02-23T11:09:13.091Z,49.69
2018-02-23T11:11:42.154Z,48.08
2018-02-23T11:14:10.599Z,47.85
2018-02-23T11:16:38.944Z,46.78
2018-02-23T11:19:08.051Z,46.41
2018-02-23T11:21:37.387Z,46.29
2018-02-23T11:24:05.688Z,46.05
2018-02-23T11:26:33.994Z,44.93
2018-02-23T11:29:03.009Z,44.26
2018-02-23T11:31:32.104Z,43.46
2018-02-23T11:34:01.237Z,42.61
2018-02-23T11:36:29.552Z,41.60
2018-02-23T11:38:57.869Z,41.11
2018-02-23T11:41:26.951Z,39.82
2018-02-23T11:43:55.379Z,39.68
2018-02-23T11:46:23.965Z,38.35
2018-02-23T11:48:52.288Z,37.88
2018-02-23T11:51:20.603Z,38.02
2018-02-23T11:53:49.820Z,37.83
2018-02-23T11:56:18.165Z,37.79
2018-02-23T11:58:46.638Z,37.89
2018-02-23T12:01:15.033Z,38.04
2018-02-23T12:03:43.340Z,38.32
2018-02-23T12:06:11.657Z,38.66
2018-02-23T12:08:40.114Z,39.21
2018-02-23T12:11:08.480Z,39.04
2018-02-23T12:13:37.841Z,37.96
2018-02-23T12:16:06.391Z,37.80
2018-02-23T12:18:34.689Z,37.39
2018-02-23T12:21:03.039Z,37.65
2018-02-23T12:23:32.254Z,37.50
2018-02-23T12:26:00.593Z,37.41
2018-02-23T12:28:28.972Z,37.71
2018-02-23T12:30:59.611Z,36.93
2018-02-23T12:33:28.953Z,36.58
2018-02-23T12:35:57.713Z,35.81
2018-02-23T12:38:26.812Z,35.89
2018-02-23T12:40:55.903Z,35.37
2018-02-23T12:43:24.223Z,34.59
2018-02-23T12:45:52.529Z,32.88
2018-02-23T12:48:20.870Z,33.01
2018-02-23T12:50:49.220Z,33.22
2018-02-23T12:53:17.532Z,32.62
2018-02-23T12:55:45.849Z,32.41
2018-02-23T12:58:14.916Z,31.97
2018-02-23T13:00:43.556Z,31.12
2018-02-23T13:03:11.874Z,30.73
2018-02-23T13:05:40.229Z,29.98
2018-02-23T13:08:08.594Z,29.06
2018-02-23T13:10:36.930Z,28.68
2018-02-23T13:13:05.339Z,28.61
2018-02-23T13:15:33.680Z,28.17
2018-02-23T13:18:02.018Z,28.26
2018-02-23T13:20:30.335Z,27.55
2018-02-23T13:22:59.410Z,27.81
2018-02-23T13:25:27.738Z,26.87
2018-02-23T13:28:01.635Z,26.69
2018-02-23T13:30:30.720Z,26.43
2018-02-23T13:32:59.815Z,25.98
2018-02-23T13:35:28.940Z,26.00
2018-02-23T13:37:57.258Z,25.53
2018-02-23T13:40:25.966Z,24.95
2018-02-23T13:42:54.302Z,24.89
2018-02-23T13:45:23.502Z,24.57
2018-02-23T13:47:51.826Z,24.41
2018-02-23T13:50:20.150Z,24.92
2018-02-23T13:52:48.494Z,24.98
2018-02-23T13:55:16.827Z,24.87
2018-02-23T13:57:45.266Z,24.23
2018-02-23T14:00:13.636Z,24.10
2018-02-23T14:02:42.432Z,23.82
2018-02-23T14:05:10.755Z,23.67
2018-02-23T14:07:39.154Z,23.59
2018-02-23T14:10:07.492Z,23.68
2018-02-23T14:12:36.604Z,23.64
2018-02-23T14:15:04.943Z,23.34
2018-02-23T14:17:33.357Z,23.32
2018-02-23T14:20:02.481Z,23.02
2018-02-23T14:22:30.860Z,23.06
2018-02-23T14:24:59.239Z,23.06
2018-02-23T14:27:27.573Z,23.02
2018-02-23T14:29:55.891Z,23.04
2018-02-23T14:32:24.213Z,23.18
2018-02-23T14:34:52.517Z,23.44
2018-02-23T14:37:21.802Z,23.26
2018-02-23T14:39:50.202Z,23.33
2018-02-23T14:42:19.173Z,23.38
2018-02-23T14:44:47.484Z,23.53
2018-02-23T14:47:17.097Z,23.16
2018-02-23T14:50:03.007Z,23.13
2018-02-23T14:52:32.191Z,23.63
2018-02-23T14:55:01.284Z,23.79
2018-02-23T14:57:30.363Z,23.96
2018-02-23T14:59:58.717Z,24.36
2018-02-23T15:02:27.051Z,24.12
2018-02-23T15:04:56.124Z,23.96
2018-02-23T15:07:24.502Z,24.10
2018-02-23T15:09:52.850Z,24.54
2018-02-23T15:12:21.167Z,25.17
2018-02-23T15:14:49.487Z,25.25
2018-02-23T15:17:17.814Z,25.29
2018-02-23T15:19:46.161Z,25.36
2018-02-23T15:22:14.633Z,25.07
2018-02-23T15:24:42.945Z,24.60
2018-02-23T15:27:11.293Z,24.53
2018-02-23T15:29:39.618Z,24.33
2018-02-23T15:32:38.595Z,24.46
2018-02-23T15:35:08.420Z,24.97
2018-02-23T15:37:36.730Z,24.65
2018-02-23T15:40:05.877Z,24.30
2018-02-23T15:42:34.192Z,24.27
2018-02-23T15:45:02.512Z,24.50
2018-02-23T15:47:34.169Z,24.97
2018-02-23T15:50:09.222Z,25.48
2018-02-23T15:52:37.829Z,25.96
2018-02-23T15:55:06.180Z,26.26
2018-02-23T15:57:34.544Z,26.56
2018-02-23T16:00:02.912Z,27.02
2018-02-23T16:02:32.045Z,27.55
2018-02-23T16:05:00.422Z,27.95
2018-02-23T16:07:28.766Z,27.84
2018-02-23T16:09:57.886Z,27.59
2018-02-23T16:12:26.977Z,27.93
2018-02-23T16:14:56.088Z,28.33
2018-02-23T16:17:24.401Z,29.10
2018-02-23T16:19:52.767Z,30.13
2018-02-23T16:22:21.087Z,31.35
2018-02-23T16:24:49.414Z,32.31
2018-02-23T16:27:17.744Z,33.29
2018-02-23T16:29:46.097Z,34.20
2018-02-23T16:32:14.426Z,35.38
2018-02-23T16:34:42.752Z,36.76
2018-02-23T16:37:11.124Z,37.67
2018-02-23T16:39:40.526Z,38.65
2018-02-23T16:42:09.083Z,39.95
2018-02-23T16:44:38.204Z,40.62
2018-02-23T16:47:06.601Z,41.61
2018-02-23T16:49:34.941Z,42.68
2018-02-23T16:52:04.059Z,43.48
2018-02-23T16:54:32.399Z,43.90
2018-02-23T16:57:01.489Z,44.69
2018-02-23T16:59:29.844Z,45.15
2018-02-23T17:02:00.452Z,45.71
2018-02-23T17:04:28.842Z,46.71
2018-02-23T17:06:57.996Z,47.90
2018-02-23T17:09:27.873Z,48.69
2018-02-23T17:11:56.224Z,49.35
2018-02-23T17:14:25.571Z,49.95
2018-02-23T17:16:53.888Z,50.69
2018-02-23T17:19:22.366Z,51.09
2018-02-23T17:21:50.758Z,51.85
2018-02-23T17:24:19.865Z,52.38
2018-02-23T17:26:49.816Z,52.74
2018-02-23T17:29:18.344Z,53.13
2018-02-23T17:31:48.225Z,53.45
2018-02-23T17:34:16.799Z,53.81
2018-02-23T17:36:45.946Z,54.08
2018-02-23T17:39:14.381Z,54.27
2018-02-23T17:41:42.698Z,54.62
2018-02-23T17:44:11.123Z,54.97
2018-02-23T17:46:39.453Z,55.09
2018-02-23T17:49:08.227Z,55.50
2018-02-23T17:51:36.716Z,55.86
2018-02-23T17:54:05.701Z,55.84
2018-02-23T17:56:34.106Z,55.91
2018-02-23T17:59:02.426Z,56.08
2018-02-23T18:01:30.767Z,56.41
2018-02-23T18:03:59.196Z,56.35
2018-02-23T18:06:27.565Z,56.34
2018-02-23T18:08:55.940Z,56.66
2018-02-23T18:11:24.400Z,56.61
2018-02-23T18:13:53.647Z,56.70
2018-02-23T18:16:22.038Z,57.06
2018-02-23T18:18:58.011Z,57.08
2018-02-23T18:21:26.594Z,57.10
2018-02-23T18:23:54.924Z,57.56
2018-02-23T18:26:23.294Z,57.69
2018-02-23T18:28:51.613Z,57.63
2018-02-23T18:31:20.756Z,57.59
2018-02-23T18:33:49.140Z,57.69
2018-02-23T18:36:17.461Z,57.47
2018-02-23T18:38:45.820Z,57.52
2018-02-23T18:41:14.174Z,57.62
2018-02-23T18:43:42.532Z,57.77
2018-02-23T18:46:10.920Z,58.02
2018-02-23T18:48:39.342Z,58.22
2018-02-23T18:51:09.008Z,58.69
2018-02-23T18:53:38.862Z,58.95
2018-02-23T18:56:07.182Z,59.10
2018-02-23T18:58:35.516Z,59.47
2018-02-23T19:01:03.852Z,59.86
2018-02-23T19:03:32.931Z,60.08
2018-02-23T19:06:01.740Z,60.05
2018-02-23T19:08:30.840Z,60.01
2018-02-23T19:10:59.174Z,60.03
2018-02-23T19:13:27.511Z,60.19
2018-02-23T19:15:56.624Z,60.33
2018-02-23T19:18:24.926Z,60.51
2018-02-23T19:20:53.252Z,61.22
2018-02-23T19:23:22.388Z,60.73
2018-02-23T19:25:50.701Z,60.32
2018-02-23T19:28:19.037Z,60.05
2018-02-23T19:30:48.135Z,60.06
2018-02-23T19:33:18.014Z,60.06
2018-02-23T19:35:46.330Z,60.06
2018-02-23T19:38:14.698Z,60.21
2018-02-23T19:40:43.796Z,60.43
2018-02-23T19:43:12.207Z,60.71
2018-02-23T19:45:40.558Z,60.78
2018-02-23T19:48:09.710Z,60.91
2018-02-23T19:50:38.136Z,61.21
2018-02-23T19:53:07.214Z,61.30
2018-02-23T19:55:35.557Z,61.46
2018-02-23T19:58:03.877Z,61.74
2018-02-23T20:00:32.892Z,61.83
2018-02-23T20:03:02.083Z,62.10
2018-02-23T20:05:30.503Z,62.20
2018-02-23T20:07:58.868Z,62.16
2018-02-23T20:10:27.950Z,62.25
2018-02-23T20:12:57.137Z,62.36
2018-02-23T20:15:26.317Z,62.34
2018-02-23T20:17:55.433Z,62.38
2018-02-23T20:20:23.789Z,62.23
2018-02-23T20:22:52.282Z,62.22
2018-02-23T20:25:20.626Z,62.31
2018-02-23T20:27:49.025Z,62.44
2018-02-23T20:30:17.491Z,62.32
2018-02-23T20:32:45.888Z,62.54
2018-02-23T20:35:14.397Z,62.51
2018-02-23T20:37:43.295Z,62.57
2018-02-23T20:40:11.730Z,62.81
2018-02-23T20:42:40.086Z,63.11
2018-02-23T20:45:08.448Z,63.10
2018-02-23T20:47:37.830Z,63.22
2018-02-23T20:50:06.236Z,63.08
2018-02-23T20:52:34.581Z,62.91
2018-02-23T20:55:03.346Z,62.74
2018-02-23T20:57:31.711Z,62.83
2018-02-23T21:00:00.926Z,62.92
2018-02-23T21:02:29.500Z,62.98
2018-02-23T21:04:57.960Z,62.96
2018-02-23T21:07:26.391Z,63.12
2018-02-23T21:09:54.739Z,63.16
2018-02-23T21:12:23.856Z,63.51
2018-02-23T21:14:52.998Z,63.77
2018-02-23T21:17:21.329Z,63.82
2018-02-23T21:19:50.425Z,64.08
2018-02-23T21:22:20.364Z,64.26
2018-02-23T21:24:48.749Z,64.31
2018-02-23T21:27:17.154Z,64.44
2018-02-23T21:29:45.478Z,64.39
2018-02-23T21:32:13.820Z,64.63
2018-02-23T21:34:42.155Z,64.41
2018-02-23T21:37:11.276Z,64.64
2018-02-23T21:39:39.626Z,64.52
2018-02-23T21:42:07.996Z,64.62
2018-02-23T21:44:47.730Z,64.87
2018-02-23T21:47:16.096Z,64.68
2018-02-23T21:49:44.431Z,64.77
2018-02-23T21:52:12.842Z,64.76
2018-02-23T21:54:41.218Z,65.07
2018-02-23T21:57:10.417Z,65.09
2018-02-23T21:59:38.794Z,65.23
2018-02-23T22:02:07.142Z,65.21
2018-02-23T22:04:36.256Z,65.28
2018-02-23T22:07:04.662Z,65.23
2018-02-23T22:09:33.006Z,65.41
2018-02-23T22:12:02.119Z,65.53
2018-02-23T22:14:30.505Z,65.34
2018-02-23T22:16:58.870Z,65.50
2018-02-23T22:19:27.939Z,65.45
2018-02-23T22:21:57.133Z,65.53
2018-02-23T22:24:25.524Z,65.55
2018-02-23T22:26:53.904Z,65.64
2018-02-23T22:29:22.232Z,65.75
2018-02-23T22:31:50.558Z,65.57
2018-02-23T22:34:18.866Z,65.79
2018-02-23T22:36:47.998Z,65.39
2018-02-23T22:39:16.993Z,65.18
2018-02-23T22:41:46.029Z,65.54
2018-02-23T22:44:15.809Z,65.48
2018-02-23T22:46:44.196Z,65.50
2018-02-23T22:49:12.697Z,65.67
2018-02-23T22:51:41.046Z,65.71
2018-02-23T22:54:09.403Z,65.34
2018-02-23T22:56:37.808Z,65.31
2018-02-23T22:59:06.195Z,65.12
2018-02-23T23:01:34.549Z,65.42
2018-02-23T23:04:04.261Z,65.64
2018-02-23T23:06:33.367Z,65.61
2018-02-23T23:09:02.544Z,65.37
2018-02-23T23:11:31.891Z,65.08
2018-02-23T23:14:00.282Z,65.05
2018-02-23T23:16:28.740Z,64.78
2018-02-23T23:18:57.833Z,64.72
2018-02-23T23:21:26.977Z,64.64
2018-02-23T23:23:56.033Z,64.90
2018-02-23T23:26:24.399Z,64.75
2018-02-23T23:28:53.492Z,64.65
2018-02-23T23:31:22.618Z,64.43
2018-02-23T23:33:50.982Z,64.12
2018-02-23T23:36:20.168Z,63.61
2018-02-23T23:38:48.541Z,63.96
2018-02-23T23:41:16.932Z,64.13
2018-02-23T23:43:46.113Z,64.22
2018-02-23T23:46:14.485Z,64.46
2018-02-23T23:48:43.453Z,64.61
2018-02-23T23:51:11.868Z,64.42
2018-02-23T23:53:40.238Z,64.24
2018-02-23T23:56:08.660Z,64.38
2018-02-23T23:58:37.044Z,64.60
